sensor_id;sensor_type;location;lat;lon;timestamp;P1;durP1;ratioP1;P2;durP2;ratioP2
2049;SDS011;8478;49.208;8.806;2023-04-29T00:00:06;4.80;;;4.60;;
2049;SDS011;8478;49.208;8.806;2023-04-29T00:02:33;4.37;;;4.17;;
2049;SDS011;8478;49.208;8.806;2023-04-29T00:04:58;5.00;;;4.70;;
2049;SDS011;8478;49.208;8.806;2023-04-29T00:07:24;5.07;;;4.67;;
2049;SDS011;8478;49.208;8.806;2023-04-29T00:09:50;4.80;;;4.50;;
2049;SDS011;8478;49.208;8.806;2023-04-29T00:12:16;4.70;;;4.40;;
2049;SDS011;8478;49.208;8.806;2023-04-29T00:14:42;5.17;;;4.87;;
2049;SDS011;8478;49.208;8.806;2023-04-29T00:17:08;5.30;;;5.00;;
2049;SDS011;8478;49.208;8.806;2023-04-29T00:19:34;5.00;;;4.70;;
2049;SDS011;8478;49.208;8.806;2023-04-29T00:21:59;5.30;;;5.00;;
2049;SDS011;8478;49.208;8.806;2023-04-29T00:24:26;5.57;;;5.17;;
2049;SDS011;8478;49.208;8.806;2023-04-29T00:26:51;5.20;;;4.90;;
2049;SDS011;8478;49.208;8.806;2023-04-29T00:29:17;6.00;;;5.53;;
2049;SDS011;8478;49.208;8.806;2023-04-29T00:31:43;5.80;;;5.23;;
2049;SDS011;8478;49.208;8.806;2023-04-29T00:34:10;5.30;;;5.00;;
2049;SDS011;8478;49.208;8.806;2023-04-29T00:36:35;6.37;;;5.03;;
2049;SDS011;8478;49.208;8.806;2023-04-29T00:39:01;4.77;;;4.57;;
2049;SDS011;8478;49.208;8.806;2023-04-29T00:41:27;5.83;;;5.43;;
2049;SDS011;8478;49.208;8.806;2023-04-29T00:43:53;4.93;;;4.70;;
2049;SDS011;8478;49.208;8.806;2023-04-29T00:46:19;5.40;;;5.10;;
2049;SDS011;8478;49.208;8.806;2023-04-29T00:48:45;5.70;;;5.30;;
2049;SDS011;8478;49.208;8.806;2023-04-29T00:51:10;5.07;;;4.77;;
2049;SDS011;8478;49.208;8.806;2023-04-29T00:53:37;5.60;;;5.30;;
2049;SDS011;8478;49.208;8.806;2023-04-29T00:56:03;5.77;;;5.37;;
2049;SDS011;8478;49.208;8.806;2023-04-29T00:58:31;5.30;;;5.00;;
2049;SDS011;8478;49.208;8.806;2023-04-29T01:00:59;5.53;;;4.97;;
2049;SDS011;8478;49.208;8.806;2023-04-29T01:03:27;5.30;;;5.00;;
2049;SDS011;8478;49.208;8.806;2023-04-29T01:11:48;6.13;;;5.53;;
2049;SDS011;8478;49.208;8.806;2023-04-29T01:14:18;5.53;;;5.27;;
2049;SDS011;8478;49.208;8.806;2023-04-29T01:16:51;5.43;;;5.10;;
2049;SDS011;8478;49.208;8.806;2023-04-29T01:21:45;5.67;;;5.37;;
2049;SDS011;8478;49.208;8.806;2023-04-29T01:24:12;5.20;;;4.90;;
2049;SDS011;8478;49.208;8.806;2023-04-29T01:26:39;5.60;;;5.20;;
2049;SDS011;8478;49.208;8.806;2023-04-29T01:29:16;5.40;;;5.10;;
2049;SDS011;8478;49.208;8.806;2023-04-29T01:32:05;5.17;;;4.87;;
2049;SDS011;8478;49.208;8.806;2023-04-29T01:37:29;5.90;;;5.60;;
2049;SDS011;8478;49.208;8.806;2023-04-29T01:40:05;5.50;;;5.10;;
2049;SDS011;8478;49.208;8.806;2023-04-29T01:42:47;4.83;;;4.53;;
2049;SDS011;8478;49.208;8.806;2023-04-29T01:45:24;6.10;;;5.60;;
2049;SDS011;8478;49.208;8.806;2023-04-29T01:47:51;5.63;;;5.00;;
2049;SDS011;8478;49.208;8.806;2023-04-29T01:50:19;4.20;;;4.00;;
2049;SDS011;8478;49.208;8.806;2023-04-29T01:52:46;5.00;;;4.70;;
2049;SDS011;8478;49.208;8.806;2023-04-29T01:55:11;5.30;;;5.00;;
2049;SDS011;8478;49.208;8.806;2023-04-29T01:57:37;5.10;;;4.80;;
2049;SDS011;8478;49.208;8.806;2023-04-29T02:00:03;4.80;;;4.57;;
2049;SDS011;8478;49.208;8.806;2023-04-29T02:02:29;4.60;;;4.40;;
2049;SDS011;8478;49.208;8.806;2023-04-29T02:04:55;5.27;;;4.90;;
2049;SDS011;8478;49.208;8.806;2023-04-29T02:07:20;4.70;;;4.47;;
2049;SDS011;8478;49.208;8.806;2023-04-29T02:09:46;5.20;;;4.87;;
2049;SDS011;8478;49.208;8.806;2023-04-29T02:12:12;5.10;;;4.80;;
2049;SDS011;8478;49.208;8.806;2023-04-29T02:14:37;5.10;;;4.80;;
2049;SDS011;8478;49.208;8.806;2023-04-29T02:17:03;5.37;;;4.97;;
2049;SDS011;8478;49.208;8.806;2023-04-29T02:19:29;4.70;;;4.40;;
2049;SDS011;8478;49.208;8.806;2023-04-29T02:21:54;4.70;;;4.30;;
2049;SDS011;8478;49.208;8.806;2023-04-29T02:24:20;5.77;;;5.33;;
2049;SDS011;8478;49.208;8.806;2023-04-29T02:26:46;20.30;;;7.70;;
2049;SDS011;8478;49.208;8.806;2023-04-29T02:29:12;5.93;;;5.47;;
2049;SDS011;8478;49.208;8.806;2023-04-29T02:31:37;5.87;;;5.47;;
2049;SDS011;8478;49.208;8.806;2023-04-29T02:34:03;4.70;;;4.40;;
2049;SDS011;8478;49.208;8.806;2023-04-29T02:36:29;4.90;;;4.60;;
2049;SDS011;8478;49.208;8.806;2023-04-29T02:38:55;4.87;;;4.57;;
2049;SDS011;8478;49.208;8.806;2023-04-29T02:41:21;17.07;;;6.20;;
2049;SDS011;8478;49.208;8.806;2023-04-29T02:43:47;4.80;;;4.50;;
2049;SDS011;8478;49.208;8.806;2023-04-29T02:46:13;5.23;;;4.83;;
2049;SDS011;8478;49.208;8.806;2023-04-29T02:48:40;10.17;;;4.90;;
2049;SDS011;8478;49.208;8.806;2023-04-29T02:51:06;13.60;;;6.23;;
2049;SDS011;8478;49.208;8.806;2023-04-29T02:53:32;10.10;;;5.80;;
2049;SDS011;8478;49.208;8.806;2023-04-29T02:55:57;10.07;;;6.00;;
2049;SDS011;8478;49.208;8.806;2023-04-29T02:58:23;5.27;;;4.73;;
2049;SDS011;8478;49.208;8.806;2023-04-29T03:00:49;14.83;;;6.23;;
2049;SDS011;8478;49.208;8.806;2023-04-29T03:03:15;8.27;;;4.97;;
2049;SDS011;8478;49.208;8.806;2023-04-29T03:05:41;9.80;;;5.13;;
2049;SDS011;8478;49.208;8.806;2023-04-29T03:08:07;5.70;;;5.20;;
2049;SDS011;8478;49.208;8.806;2023-04-29T03:10:34;5.70;;;5.10;;
2049;SDS011;8478;49.208;8.806;2023-04-29T03:13:00;5.70;;;5.10;;
2049;SDS011;8478;49.208;8.806;2023-04-29T03:15:26;5.23;;;4.57;;
2049;SDS011;8478;49.208;8.806;2023-04-29T03:17:52;5.07;;;4.63;;
2049;SDS011;8478;49.208;8.806;2023-04-29T03:20:17;5.07;;;4.63;;
2049;SDS011;8478;49.208;8.806;2023-04-29T03:22:43;5.17;;;4.77;;
2049;SDS011;8478;49.208;8.806;2023-04-29T03:25:09;4.90;;;4.50;;
2049;SDS011;8478;49.208;8.806;2023-04-29T03:27:34;4.67;;;4.47;;
2049;SDS011;8478;49.208;8.806;2023-04-29T03:30:00;4.57;;;4.27;;
2049;SDS011;8478;49.208;8.806;2023-04-29T03:32:26;5.37;;;4.97;;
2049;SDS011;8478;49.208;8.806;2023-04-29T03:34:52;5.37;;;4.97;;
2049;SDS011;8478;49.208;8.806;2023-04-29T03:37:19;5.37;;;4.93;;
2049;SDS011;8478;49.208;8.806;2023-04-29T03:39:44;5.40;;;5.00;;
2049;SDS011;8478;49.208;8.806;2023-04-29T03:42:10;5.17;;;4.70;;
2049;SDS011;8478;49.208;8.806;2023-04-29T03:44:36;5.20;;;4.90;;
2049;SDS011;8478;49.208;8.806;2023-04-29T03:47:02;5.53;;;5.13;;
2049;SDS011;8478;49.208;8.806;2023-04-29T03:49:27;8.03;;;5.50;;
2049;SDS011;8478;49.208;8.806;2023-04-29T03:51:53;5.17;;;4.87;;
2049;SDS011;8478;49.208;8.806;2023-04-29T03:54:19;4.90;;;4.50;;
2049;SDS011;8478;49.208;8.806;2023-04-29T03:56:45;5.87;;;5.47;;
2049;SDS011;8478;49.208;8.806;2023-04-29T03:59:11;6.37;;;5.80;;
2049;SDS011;8478;49.208;8.806;2023-04-29T04:01:36;6.47;;;5.97;;
2049;SDS011;8478;49.208;8.806;2023-04-29T04:04:02;5.90;;;5.50;;
2049;SDS011;8478;49.208;8.806;2023-04-29T04:06:28;6.70;;;6.20;;
2049;SDS011;8478;49.208;8.806;2023-04-29T04:08:53;7.80;;;7.20;;
2049;SDS011;8478;49.208;8.806;2023-04-29T04:11:19;6.70;;;6.30;;
2049;SDS011;8478;49.208;8.806;2023-04-29T04:13:45;6.63;;;6.07;;
2049;SDS011;8478;49.208;8.806;2023-04-29T04:16:10;6.10;;;5.63;;
2049;SDS011;8478;49.208;8.806;2023-04-29T04:18:36;7.27;;;6.70;;
2049;SDS011;8478;49.208;8.806;2023-04-29T04:21:09;7.27;;;6.63;;
2049;SDS011;8478;49.208;8.806;2023-04-29T04:23:35;8.00;;;7.20;;
2049;SDS011;8478;49.208;8.806;2023-04-29T04:26:04;7.40;;;6.70;;
2049;SDS011;8478;49.208;8.806;2023-04-29T04:28:30;7.77;;;7.17;;
2049;SDS011;8478;49.208;8.806;2023-04-29T04:30:56;7.07;;;5.87;;
2049;SDS011;8478;49.208;8.806;2023-04-29T04:33:21;10.03;;;6.17;;
2049;SDS011;8478;49.208;8.806;2023-04-29T04:35:47;6.50;;;5.90;;
2049;SDS011;8478;49.208;8.806;2023-04-29T04:38:13;7.57;;;6.87;;
2049;SDS011;8478;49.208;8.806;2023-04-29T04:40:42;7.50;;;7.00;;
2049;SDS011;8478;49.208;8.806;2023-04-29T04:43:08;28.17;;;10.90;;
2049;SDS011;8478;49.208;8.806;2023-04-29T04:45:34;9.07;;;7.20;;
2049;SDS011;8478;49.208;8.806;2023-04-29T04:48:00;8.83;;;8.03;;
2049;SDS011;8478;49.208;8.806;2023-04-29T04:50:27;8.50;;;6.17;;
2049;SDS011;8478;49.208;8.806;2023-04-29T04:52:56;7.40;;;6.70;;
2049;SDS011;8478;49.208;8.806;2023-04-29T04:55:22;7.83;;;7.10;;
2049;SDS011;8478;49.208;8.806;2023-04-29T04:57:48;9.07;;;8.37;;
2049;SDS011;8478;49.208;8.806;2023-04-29T05:00:14;6.37;;;5.93;;
2049;SDS011;8478;49.208;8.806;2023-04-29T05:02:40;7.27;;;6.70;;
2049;SDS011;8478;49.208;8.806;2023-04-29T05:05:06;8.30;;;7.60;;
2049;SDS011;8478;49.208;8.806;2023-04-29T05:07:32;7.80;;;7.17;;
2049;SDS011;8478;49.208;8.806;2023-04-29T05:10:01;8.80;;;8.10;;
2049;SDS011;8478;49.208;8.806;2023-04-29T05:12:27;9.53;;;8.67;;
2049;SDS011;8478;49.208;8.806;2023-04-29T05:14:54;12.97;;;9.37;;
2049;SDS011;8478;49.208;8.806;2023-04-29T05:17:21;9.13;;;8.43;;
2049;SDS011;8478;49.208;8.806;2023-04-29T05:19:46;9.60;;;8.73;;
2049;SDS011;8478;49.208;8.806;2023-04-29T05:22:12;8.50;;;7.70;;
2049;SDS011;8478;49.208;8.806;2023-04-29T05:24:38;7.80;;;7.20;;
2049;SDS011;8478;49.208;8.806;2023-04-29T05:27:03;7.83;;;7.10;;
2049;SDS011;8478;49.208;8.806;2023-04-29T05:29:29;7.50;;;7.00;;
2049;SDS011;8478;49.208;8.806;2023-04-29T05:31:55;7.57;;;6.87;;
2049;SDS011;8478;49.208;8.806;2023-04-29T05:34:21;18.50;;;7.30;;
2049;SDS011;8478;49.208;8.806;2023-04-29T05:36:47;7.30;;;6.60;;
2049;SDS011;8478;49.208;8.806;2023-04-29T05:39:12;7.13;;;6.63;;
2049;SDS011;8478;49.208;8.806;2023-04-29T05:41:38;8.57;;;6.87;;
2049;SDS011;8478;49.208;8.806;2023-04-29T05:44:04;8.80;;;6.00;;
2049;SDS011;8478;49.208;8.806;2023-04-29T05:46:30;7.80;;;6.70;;
2049;SDS011;8478;49.208;8.806;2023-04-29T05:48:55;6.30;;;5.80;;
2049;SDS011;8478;49.208;8.806;2023-04-29T05:51:21;5.90;;;5.50;;
2049;SDS011;8478;49.208;8.806;2023-04-29T05:53:47;6.50;;;5.87;;
2049;SDS011;8478;49.208;8.806;2023-04-29T05:56:12;6.10;;;5.60;;
2049;SDS011;8478;49.208;8.806;2023-04-29T05:58:38;6.40;;;6.00;;
2049;SDS011;8478;49.208;8.806;2023-04-29T06:01:04;5.73;;;5.33;;
2049;SDS011;8478;49.208;8.806;2023-04-29T06:03:29;6.20;;;5.70;;
2049;SDS011;8478;49.208;8.806;2023-04-29T06:05:55;5.63;;;5.13;;
2049;SDS011;8478;49.208;8.806;2023-04-29T06:08:22;5.87;;;5.47;;
2049;SDS011;8478;49.208;8.806;2023-04-29T06:10:48;5.23;;;4.83;;
2049;SDS011;8478;49.208;8.806;2023-04-29T06:13:16;4.87;;;4.57;;
2049;SDS011;8478;49.208;8.806;2023-04-29T06:15:42;5.60;;;5.10;;
2049;SDS011;8478;49.208;8.806;2023-04-29T06:18:08;4.90;;;4.50;;
2049;SDS011;8478;49.208;8.806;2023-04-29T06:20:33;5.83;;;5.43;;
2049;SDS011;8478;49.208;8.806;2023-04-29T06:22:59;5.30;;;4.90;;
2049;SDS011;8478;49.208;8.806;2023-04-29T06:25:24;5.50;;;5.17;;
2049;SDS011;8478;49.208;8.806;2023-04-29T06:27:50;5.67;;;5.27;;
2049;SDS011;8478;49.208;8.806;2023-04-29T06:30:16;5.57;;;5.17;;
2049;SDS011;8478;49.208;8.806;2023-04-29T06:32:41;5.60;;;5.30;;
2049;SDS011;8478;49.208;8.806;2023-04-29T06:35:07;5.23;;;4.93;;
2049;SDS011;8478;49.208;8.806;2023-04-29T06:37:33;5.20;;;4.80;;
2049;SDS011;8478;49.208;8.806;2023-04-29T06:39:59;5.20;;;4.70;;
2049;SDS011;8478;49.208;8.806;2023-04-29T06:42:24;5.40;;;5.10;;
2049;SDS011;8478;49.208;8.806;2023-04-29T06:44:50;4.90;;;4.50;;
2049;SDS011;8478;49.208;8.806;2023-04-29T06:47:15;5.20;;;4.90;;
2049;SDS011;8478;49.208;8.806;2023-04-29T06:49:41;4.93;;;4.63;;
2049;SDS011;8478;49.208;8.806;2023-04-29T06:52:09;5.30;;;5.00;;
2049;SDS011;8478;49.208;8.806;2023-04-29T06:54:35;4.90;;;4.53;;
2049;SDS011;8478;49.208;8.806;2023-04-29T06:57:01;4.93;;;4.73;;
2049;SDS011;8478;49.208;8.806;2023-04-29T06:59:26;4.83;;;4.53;;
2049;SDS011;8478;49.208;8.806;2023-04-29T07:01:52;5.67;;;5.27;;
2049;SDS011;8478;49.208;8.806;2023-04-29T07:04:18;4.97;;;4.67;;
2049;SDS011;8478;49.208;8.806;2023-04-29T07:06:44;4.73;;;4.43;;
2049;SDS011;8478;49.208;8.806;2023-04-29T07:09:14;5.03;;;4.73;;
2049;SDS011;8478;49.208;8.806;2023-04-29T07:11:39;3.60;;;3.30;;
2049;SDS011;8478;49.208;8.806;2023-04-29T07:14:05;5.23;;;4.83;;
2049;SDS011;8478;49.208;8.806;2023-04-29T07:16:31;4.70;;;4.40;;
2049;SDS011;8478;49.208;8.806;2023-04-29T07:18:57;5.00;;;4.70;;
2049;SDS011;8478;49.208;8.806;2023-04-29T07:21:23;4.53;;;4.33;;
2049;SDS011;8478;49.208;8.806;2023-04-29T07:23:49;4.37;;;4.17;;
2049;SDS011;8478;49.208;8.806;2023-04-29T07:26:15;4.27;;;4.07;;
2049;SDS011;8478;49.208;8.806;2023-04-29T07:28:42;5.17;;;4.87;;
2049;SDS011;8478;49.208;8.806;2023-04-29T07:31:08;4.43;;;4.17;;
2049;SDS011;8478;49.208;8.806;2023-04-29T07:33:35;4.30;;;4.10;;
2049;SDS011;8478;49.208;8.806;2023-04-29T07:36:01;4.77;;;4.43;;
2049;SDS011;8478;49.208;8.806;2023-04-29T07:38:29;4.90;;;4.50;;
2049;SDS011;8478;49.208;8.806;2023-04-29T07:40:54;4.93;;;4.57;;
2049;SDS011;8478;49.208;8.806;2023-04-29T07:43:20;4.77;;;4.43;;
2049;SDS011;8478;49.208;8.806;2023-04-29T07:45:46;4.77;;;4.47;;
2049;SDS011;8478;49.208;8.806;2023-04-29T07:48:12;4.37;;;4.07;;
2049;SDS011;8478;49.208;8.806;2023-04-29T07:50:38;4.20;;;4.00;;
2049;SDS011;8478;49.208;8.806;2023-04-29T07:53:04;4.60;;;4.30;;
2049;SDS011;8478;49.208;8.806;2023-04-29T07:55:30;4.70;;;4.40;;
2049;SDS011;8478;49.208;8.806;2023-04-29T07:57:56;5.53;;;5.23;;
2049;SDS011;8478;49.208;8.806;2023-04-29T08:00:23;6.07;;;5.60;;
2049;SDS011;8478;49.208;8.806;2023-04-29T08:02:52;5.10;;;4.80;;
2049;SDS011;8478;49.208;8.806;2023-04-29T08:05:18;4.90;;;4.60;;
2049;SDS011;8478;49.208;8.806;2023-04-29T08:07:47;4.90;;;4.60;;
2049;SDS011;8478;49.208;8.806;2023-04-29T08:10:14;5.03;;;4.73;;
2049;SDS011;8478;49.208;8.806;2023-04-29T08:12:40;6.23;;;5.83;;
2049;SDS011;8478;49.208;8.806;2023-04-29T08:15:05;5.93;;;5.53;;
2049;SDS011;8478;49.208;8.806;2023-04-29T08:17:32;6.13;;;5.63;;
2049;SDS011;8478;49.208;8.806;2023-04-29T08:19:57;6.70;;;6.10;;
2049;SDS011;8478;49.208;8.806;2023-04-29T08:22:23;5.87;;;5.47;;
2049;SDS011;8478;49.208;8.806;2023-04-29T08:24:49;6.93;;;6.37;;
2049;SDS011;8478;49.208;8.806;2023-04-29T08:27:14;8.27;;;7.60;;
2049;SDS011;8478;49.208;8.806;2023-04-29T08:29:40;7.60;;;7.00;;
2049;SDS011;8478;49.208;8.806;2023-04-29T08:32:07;6.87;;;6.20;;
2049;SDS011;8478;49.208;8.806;2023-04-29T08:34:32;6.53;;;6.13;;
2049;SDS011;8478;49.208;8.806;2023-04-29T08:37:00;6.43;;;5.90;;
2049;SDS011;8478;49.208;8.806;2023-04-29T08:39:27;7.23;;;6.63;;
2049;SDS011;8478;49.208;8.806;2023-04-29T08:41:55;6.63;;;6.03;;
2049;SDS011;8478;49.208;8.806;2023-04-29T08:44:21;7.13;;;6.53;;
2049;SDS011;8478;49.208;8.806;2023-04-29T08:46:47;8.17;;;7.60;;
2049;SDS011;8478;49.208;8.806;2023-04-29T08:49:13;9.90;;;9.00;;
2049;SDS011;8478;49.208;8.806;2023-04-29T08:51:39;9.10;;;8.50;;
2049;SDS011;8478;49.208;8.806;2023-04-29T08:54:05;7.93;;;6.93;;
2049;SDS011;8478;49.208;8.806;2023-04-29T08:56:31;8.70;;;8.00;;
2049;SDS011;8478;49.208;8.806;2023-04-29T08:58:58;9.40;;;8.63;;
2049;SDS011;8478;49.208;8.806;2023-04-29T09:01:28;8.97;;;8.27;;
2049;SDS011;8478;49.208;8.806;2023-04-29T09:06:41;9.50;;;8.63;;
2049;SDS011;8478;49.208;8.806;2023-04-29T09:09:07;9.70;;;9.00;;
2049;SDS011;8478;49.208;8.806;2023-04-29T09:11:34;9.53;;;8.83;;
2049;SDS011;8478;49.208;8.806;2023-04-29T09:14:01;9.07;;;8.37;;
2049;SDS011;8478;49.208;8.806;2023-04-29T09:16:28;8.93;;;8.23;;
2049;SDS011;8478;49.208;8.806;2023-04-29T09:18:54;9.83;;;9.03;;
2049;SDS011;8478;49.208;8.806;2023-04-29T09:21:24;10.17;;;9.27;;
2049;SDS011;8478;49.208;8.806;2023-04-29T09:23:54;10.60;;;9.70;;
2049;SDS011;8478;49.208;8.806;2023-04-29T09:26:22;11.17;;;10.27;;
2049;SDS011;8478;49.208;8.806;2023-04-29T09:29:09;9.47;;;8.77;;
2049;SDS011;8478;49.208;8.806;2023-04-29T09:31:42;9.80;;;9.00;;
2049;SDS011;8478;49.208;8.806;2023-04-29T09:34:09;10.13;;;9.30;;
2049;SDS011;8478;49.208;8.806;2023-04-29T09:39:15;10.37;;;9.47;;
2049;SDS011;8478;49.208;8.806;2023-04-29T09:44:16;10.03;;;9.27;;
2049;SDS011;8478;49.208;8.806;2023-04-29T09:46:54;9.30;;;8.50;;
2049;SDS011;8478;49.208;8.806;2023-04-29T09:49:25;10.20;;;9.23;;
2049;SDS011;8478;49.208;8.806;2023-04-29T09:51:56;10.20;;;9.43;;
2049;SDS011;8478;49.208;8.806;2023-04-29T09:54:24;10.47;;;9.57;;
2049;SDS011;8478;49.208;8.806;2023-04-29T09:56:54;10.93;;;10.10;;
2049;SDS011;8478;49.208;8.806;2023-04-29T09:59:21;9.87;;;9.07;;
2049;SDS011;8478;49.208;8.806;2023-04-29T10:01:51;10.57;;;9.77;;
2049;SDS011;8478;49.208;8.806;2023-04-29T10:04:19;9.03;;;8.33;;
2049;SDS011;8478;49.208;8.806;2023-04-29T10:06:48;10.10;;;9.30;;
2049;SDS011;8478;49.208;8.806;2023-04-29T10:09:16;11.10;;;10.20;;
2049;SDS011;8478;49.208;8.806;2023-04-29T10:11:50;9.60;;;8.80;;
2049;SDS011;8478;49.208;8.806;2023-04-29T10:14:18;10.20;;;9.30;;
2049;SDS011;8478;49.208;8.806;2023-04-29T10:19:32;9.37;;;8.57;;
2049;SDS011;8478;49.208;8.806;2023-04-29T10:22:08;9.90;;;9.10;;
2049;SDS011;8478;49.208;8.806;2023-04-29T10:24:36;9.47;;;8.77;;
2049;SDS011;8478;49.208;8.806;2023-04-29T10:27:05;8.23;;;7.63;;
2049;SDS011;8478;49.208;8.806;2023-04-29T10:29:33;10.23;;;9.30;;
2049;SDS011;8478;49.208;8.806;2023-04-29T10:32:00;9.77;;;8.97;;
2049;SDS011;8478;49.208;8.806;2023-04-29T10:34:28;9.50;;;8.70;;
2049;SDS011;8478;49.208;8.806;2023-04-29T10:36:56;9.23;;;8.53;;
2049;SDS011;8478;49.208;8.806;2023-04-29T10:39:29;9.37;;;8.60;;
2049;SDS011;8478;49.208;8.806;2023-04-29T10:42:03;9.03;;;8.30;;
2049;SDS011;8478;49.208;8.806;2023-04-29T10:53:17;10.03;;;9.23;;
2049;SDS011;8478;49.208;8.806;2023-04-29T10:56:03;8.97;;;8.30;;
2049;SDS011;8478;49.208;8.806;2023-04-29T10:58:39;9.27;;;8.57;;
2049;SDS011;8478;49.208;8.806;2023-04-29T11:01:07;9.20;;;8.60;;
2049;SDS011;8478;49.208;8.806;2023-04-29T11:06:14;9.70;;;8.90;;
2049;SDS011;8478;49.208;8.806;2023-04-29T11:08:41;9.60;;;8.80;;
2049;SDS011;8478;49.208;8.806;2023-04-29T11:11:07;9.20;;;8.50;;
2049;SDS011;8478;49.208;8.806;2023-04-29T11:13:39;10.17;;;9.37;;
2049;SDS011;8478;49.208;8.806;2023-04-29T11:16:05;9.70;;;8.90;;
2049;SDS011;8478;49.208;8.806;2023-04-29T11:18:31;8.97;;;8.27;;
2049;SDS011;8478;49.208;8.806;2023-04-29T11:23:32;9.33;;;8.53;;
2049;SDS011;8478;49.208;8.806;2023-04-29T11:25:59;9.60;;;8.83;;
2049;SDS011;8478;49.208;8.806;2023-04-29T11:28:34;8.37;;;7.87;;
2049;SDS011;8478;49.208;8.806;2023-04-29T11:31:00;8.87;;;8.17;;
2049;SDS011;8478;49.208;8.806;2023-04-29T11:33:30;8.07;;;7.40;;
2049;SDS011;8478;49.208;8.806;2023-04-29T11:35:56;7.90;;;7.30;;
2049;SDS011;8478;49.208;8.806;2023-04-29T11:38:23;8.60;;;7.90;;
2049;SDS011;8478;49.208;8.806;2023-04-29T11:40:53;8.77;;;8.07;;
2049;SDS011;8478;49.208;8.806;2023-04-29T11:43:19;8.20;;;7.60;;
2049;SDS011;8478;49.208;8.806;2023-04-29T11:45:46;8.93;;;8.23;;
2049;SDS011;8478;49.208;8.806;2023-04-29T11:48:21;8.60;;;8.00;;
2049;SDS011;8478;49.208;8.806;2023-04-29T11:50:49;9.33;;;8.53;;
2049;SDS011;8478;49.208;8.806;2023-04-29T11:53:19;8.07;;;7.47;;
2049;SDS011;8478;49.208;8.806;2023-04-29T11:55:46;8.20;;;7.60;;
2049;SDS011;8478;49.208;8.806;2023-04-29T11:58:15;8.47;;;7.83;;
2049;SDS011;8478;49.208;8.806;2023-04-29T12:00:42;9.17;;;8.47;;
2049;SDS011;8478;49.208;8.806;2023-04-29T12:06:02;8.43;;;7.73;;
2049;SDS011;8478;49.208;8.806;2023-04-29T12:08:28;7.77;;;7.17;;
2049;SDS011;8478;49.208;8.806;2023-04-29T12:10:55;8.33;;;7.67;;
2049;SDS011;8478;49.208;8.806;2023-04-29T12:13:23;8.60;;;7.80;;
2049;SDS011;8478;49.208;8.806;2023-04-29T12:15:51;9.40;;;8.70;;
2049;SDS011;8478;49.208;8.806;2023-04-29T12:18:18;8.37;;;7.73;;
2049;SDS011;8478;49.208;8.806;2023-04-29T12:20:46;8.40;;;7.70;;
2049;SDS011;8478;49.208;8.806;2023-04-29T12:25:39;7.77;;;7.17;;
2049;SDS011;8478;49.208;8.806;2023-04-29T12:28:11;7.80;;;7.10;;
2049;SDS011;8478;49.208;8.806;2023-04-29T12:30:37;8.60;;;8.00;;
2049;SDS011;8478;49.208;8.806;2023-04-29T12:33:03;8.00;;;7.40;;
2049;SDS011;8478;49.208;8.806;2023-04-29T12:35:29;9.60;;;8.80;;
2049;SDS011;8478;49.208;8.806;2023-04-29T12:37:57;8.93;;;8.23;;
2049;SDS011;8478;49.208;8.806;2023-04-29T12:40:23;8.20;;;7.60;;
2049;SDS011;8478;49.208;8.806;2023-04-29T12:42:49;9.00;;;8.40;;
2049;SDS011;8478;49.208;8.806;2023-04-29T12:45:30;8.80;;;8.10;;
2049;SDS011;8478;49.208;8.806;2023-04-29T12:47:57;8.63;;;7.93;;
2049;SDS011;8478;49.208;8.806;2023-04-29T12:50:33;8.00;;;7.40;;
2049;SDS011;8478;49.208;8.806;2023-04-29T12:53:01;7.87;;;7.37;;
2049;SDS011;8478;49.208;8.806;2023-04-29T12:55:28;9.30;;;8.60;;
2049;SDS011;8478;49.208;8.806;2023-04-29T12:57:56;8.03;;;7.53;;
2049;SDS011;8478;49.208;8.806;2023-04-29T13:00:21;7.90;;;7.30;;
2049;SDS011;8478;49.208;8.806;2023-04-29T13:02:47;7.97;;;7.37;;
2049;SDS011;8478;49.208;8.806;2023-04-29T13:05:13;8.73;;;7.70;;
2049;SDS011;8478;49.208;8.806;2023-04-29T13:07:38;9.03;;;8.33;;
2049;SDS011;8478;49.208;8.806;2023-04-29T13:10:04;6.70;;;6.20;;
2049;SDS011;8478;49.208;8.806;2023-04-29T13:12:31;8.67;;;8.07;;
2049;SDS011;8478;49.208;8.806;2023-04-29T13:14:57;7.80;;;7.20;;
2049;SDS011;8478;49.208;8.806;2023-04-29T13:17:23;9.03;;;8.33;;
2049;SDS011;8478;49.208;8.806;2023-04-29T13:19:49;7.50;;;6.90;;
2049;SDS011;8478;49.208;8.806;2023-04-29T13:22:15;8.83;;;8.10;;
2049;SDS011;8478;49.208;8.806;2023-04-29T13:24:40;9.13;;;8.33;;
2049;SDS011;8478;49.208;8.806;2023-04-29T13:27:06;8.47;;;7.77;;
2049;SDS011;8478;49.208;8.806;2023-04-29T13:29:32;7.37;;;6.77;;
2049;SDS011;8478;49.208;8.806;2023-04-29T13:31:57;7.00;;;6.50;;
2049;SDS011;8478;49.208;8.806;2023-04-29T13:34:23;7.60;;;7.10;;
2049;SDS011;8478;49.208;8.806;2023-04-29T13:36:49;8.07;;;7.47;;
2049;SDS011;8478;49.208;8.806;2023-04-29T13:39:14;7.53;;;6.93;;
2049;SDS011;8478;49.208;8.806;2023-04-29T13:41:41;8.60;;;8.00;;
2049;SDS011;8478;49.208;8.806;2023-04-29T13:44:07;7.43;;;6.93;;
2049;SDS011;8478;49.208;8.806;2023-04-29T13:46:32;8.07;;;7.40;;
2049;SDS011;8478;49.208;8.806;2023-04-29T13:48:58;8.00;;;7.40;;
2049;SDS011;8478;49.208;8.806;2023-04-29T13:51:24;7.90;;;7.30;;
2049;SDS011;8478;49.208;8.806;2023-04-29T13:53:50;7.70;;;7.00;;
2049;SDS011;8478;49.208;8.806;2023-04-29T13:56:15;8.30;;;7.70;;
2049;SDS011;8478;49.208;8.806;2023-04-29T13:58:41;7.20;;;6.70;;
2049;SDS011;8478;49.208;8.806;2023-04-29T14:01:07;8.23;;;7.60;;
2049;SDS011;8478;49.208;8.806;2023-04-29T14:03:32;8.80;;;6.10;;
2049;SDS011;8478;49.208;8.806;2023-04-29T14:05:58;7.57;;;6.97;;
2049;SDS011;8478;49.208;8.806;2023-04-29T14:08:25;8.20;;;7.60;;
2049;SDS011;8478;49.208;8.806;2023-04-29T14:10:50;7.10;;;6.70;;
2049;SDS011;8478;49.208;8.806;2023-04-29T14:13:16;6.50;;;6.10;;
2049;SDS011;8478;49.208;8.806;2023-04-29T14:15:42;7.53;;;7.03;;
2049;SDS011;8478;49.208;8.806;2023-04-29T14:18:08;7.73;;;7.00;;
2049;SDS011;8478;49.208;8.806;2023-04-29T14:20:35;7.63;;;7.13;;
2049;SDS011;8478;49.208;8.806;2023-04-29T14:23:01;7.13;;;6.63;;
2049;SDS011;8478;49.208;8.806;2023-04-29T14:25:27;7.07;;;6.53;;
2049;SDS011;8478;49.208;8.806;2023-04-29T14:27:53;6.53;;;6.00;;
2049;SDS011;8478;49.208;8.806;2023-04-29T14:30:19;7.00;;;6.50;;
2049;SDS011;8478;49.208;8.806;2023-04-29T14:32:44;7.30;;;6.80;;
2049;SDS011;8478;49.208;8.806;2023-04-29T14:35:10;7.90;;;7.30;;
2049;SDS011;8478;49.208;8.806;2023-04-29T14:37:36;7.07;;;6.50;;
2049;SDS011;8478;49.208;8.806;2023-04-29T14:40:02;7.60;;;6.90;;
2049;SDS011;8478;49.208;8.806;2023-04-29T14:42:28;7.20;;;6.70;;
2049;SDS011;8478;49.208;8.806;2023-04-29T14:44:54;7.80;;;7.10;;
2049;SDS011;8478;49.208;8.806;2023-04-29T14:47:20;6.60;;;6.20;;
2049;SDS011;8478;49.208;8.806;2023-04-29T14:49:45;6.83;;;6.33;;
2049;SDS011;8478;49.208;8.806;2023-04-29T14:52:11;7.17;;;6.67;;
2049;SDS011;8478;49.208;8.806;2023-04-29T14:54:37;6.70;;;6.20;;
2049;SDS011;8478;49.208;8.806;2023-04-29T14:57:03;6.47;;;5.97;;
2049;SDS011;8478;49.208;8.806;2023-04-29T14:59:28;6.57;;;6.17;;
2049;SDS011;8478;49.208;8.806;2023-04-29T15:01:55;7.20;;;6.70;;
2049;SDS011;8478;49.208;8.806;2023-04-29T15:04:21;7.50;;;6.80;;
2049;SDS011;8478;49.208;8.806;2023-04-29T15:06:47;6.90;;;6.30;;
2049;SDS011;8478;49.208;8.806;2023-04-29T15:09:14;6.83;;;6.33;;
2049;SDS011;8478;49.208;8.806;2023-04-29T15:11:43;7.30;;;6.80;;
2049;SDS011;8478;49.208;8.806;2023-04-29T15:14:09;6.47;;;5.97;;
2049;SDS011;8478;49.208;8.806;2023-04-29T15:16:35;7.00;;;6.50;;
2049;SDS011;8478;49.208;8.806;2023-04-29T15:19:01;6.67;;;6.17;;
2049;SDS011;8478;49.208;8.806;2023-04-29T15:21:26;6.17;;;5.67;;
2049;SDS011;8478;49.208;8.806;2023-04-29T15:23:52;7.17;;;6.67;;
2049;SDS011;8478;49.208;8.806;2023-04-29T15:26:18;7.40;;;6.90;;
2049;SDS011;8478;49.208;8.806;2023-04-29T15:28:44;6.57;;;6.03;;
2049;SDS011;8478;49.208;8.806;2023-04-29T15:31:10;6.83;;;6.23;;
2049;SDS011;8478;49.208;8.806;2023-04-29T15:33:36;7.30;;;6.80;;
2049;SDS011;8478;49.208;8.806;2023-04-29T15:36:02;6.97;;;6.57;;
2049;SDS011;8478;49.208;8.806;2023-04-29T15:38:28;6.87;;;6.37;;
2049;SDS011;8478;49.208;8.806;2023-04-29T15:40:54;7.00;;;6.50;;
2049;SDS011;8478;49.208;8.806;2023-04-29T15:43:27;6.50;;;6.10;;
2049;SDS011;8478;49.208;8.806;2023-04-29T15:45:54;6.67;;;6.27;;
2049;SDS011;8478;49.208;8.806;2023-04-29T15:48:20;6.73;;;6.23;;
2049;SDS011;8478;49.208;8.806;2023-04-29T15:50:45;6.70;;;6.30;;
2049;SDS011;8478;49.208;8.806;2023-04-29T15:53:11;6.53;;;6.03;;